»·PEaware :: DAL1989 KMSO-KSEA

DAL1989 :: KMSO-KSEA

FLIGHT INFORMATION

Flight Status: Arrived
Operator:
Delta Air Lines
More flights by this operator :: More flights under this callsign
Pilot: John L. (29598)
Aircraft: AIRBUS A319
(A319)
More flights by this aircraft type
Origin: KMSO Missoula Intl
United States
Destination: KSEA Seattle-Tacoma Intl
United States
More flights between these airports :: More routes between these airports
Route: MZULA5 MLP GLASR1
File this flight plan on PilotEdge
Remarks:
Altitude:
(Current/Filed)
36,000ft
Speed:
(Current/Filed)
410kts
Departed: 14-Feb-21 07:17 PM
Arrived: 14-Feb-21 08:33 PM
Distance/Time
Traveled:
336nm/1:16
Distance/Time
To Go:
Arrived

Flight Plot

Page will automatically refresh every two minutes.

Flight plan parsing failed; only flown route is shown


Map Options




Map Legend


Flown Route
Filed Route
Departure Airport
Arrival Airport
Navaid (VOR, NDB)
Fix

Horizontal Profiles

Position Reports

Time Latitude Longitude Heading Altitude Ground
Speed
14-Feb-21 18:45 46.918812 -114.085118 113 3209ft 0kts
14-Feb-21 18:46 46.918812 -114.085118 113 3209ft 0kts
14-Feb-21 18:47 46.918812 -114.085118 113 3209ft 0kts
14-Feb-21 18:48 46.918812 -114.085118 113 3209ft 0kts
14-Feb-21 18:49 46.918812 -114.085118 113 3209ft 0kts
14-Feb-21 18:50 46.918812 -114.085118 113 3209ft 0kts
14-Feb-21 18:51 46.918812 -114.085118 113 3209ft 0kts
14-Feb-21 18:52 46.918812 -114.085118 113 3209ft 0kts
14-Feb-21 18:53 46.918812 -114.085118 113 3209ft 0kts
14-Feb-21 18:54 46.918812 -114.085118 113 3209ft 0kts
14-Feb-21 18:55 46.918812 -114.085118 113 3209ft 0kts
14-Feb-21 18:56 46.918812 -114.085118 113 3209ft 0kts
14-Feb-21 18:57 46.918811 -114.085118 113 3209ft 0kts
14-Feb-21 18:58 46.918811 -114.085118 113 3209ft 0kts
14-Feb-21 19:00 46.918811 -114.085118 113 3209ft 0kts
14-Feb-21 19:01 46.918811 -114.085118 113 3209ft 0kts
14-Feb-21 19:02 46.918811 -114.085118 113 3209ft 0kts
14-Feb-21 19:03 46.918811 -114.085118 113 3209ft 0kts
14-Feb-21 19:04 46.918811 -114.085118 113 3209ft 0kts
14-Feb-21 19:05 46.918812 -114.085119 113 3209ft 0kts
14-Feb-21 19:06 46.918854 -114.085420 86 3209ft 2kts
14-Feb-21 19:07 46.918512 -114.086116 39 3209ft 0kts
14-Feb-21 19:08 46.918245 -114.086046 309 3209ft 0kts
14-Feb-21 19:09 46.918246 -114.086046 309 3209ft 0kts
14-Feb-21 19:10 46.918256 -114.086064 309 3209ft 1kts
14-Feb-21 19:11 46.918774 -114.089157 219 3207ft 13kts
14-Feb-21 19:12 46.919073 -114.093026 310 3205ft 16kts
14-Feb-21 19:13 46.923062 -114.099858 310 3194ft 25kts
14-Feb-21 19:14 46.925578 -114.105498 219 3203ft 0kts
14-Feb-21 19:15 46.925578 -114.105497 219 3203ft 0kts
14-Feb-21 19:15 46.925287 -114.105832 219 3202ft 9kts
14-Feb-21 19:17 46.914610 -114.088723 128 3334ft 170kts
14-Feb-21 19:18 46.870226 -114.073022 175 6305ft 207kts
14-Feb-21 19:18 46.816068 -114.064399 172 8274ft 266kts
14-Feb-21 19:20 46.725375 -114.046410 177 11559ft 315kts
14-Feb-21 19:20 46.650441 -114.008112 134 12757ft 394kts
14-Feb-21 19:22 46.669445 -113.845621 21 13998ft 379kts
14-Feb-21 19:22 46.753859 -113.865871 315 15591ft 381kts
14-Feb-21 19:23 46.832083 -113.980447 314 18201ft 396kts
14-Feb-21 19:25 46.924777 -114.115708 314 20717ft 413kts
14-Feb-21 19:25 46.989703 -114.221282 310 22273ft 425kts
14-Feb-21 19:26 47.068263 -114.353986 310 23899ft 438kts
14-Feb-21 19:27 47.148032 -114.488198 310 25891ft 432kts
14-Feb-21 19:28 47.205134 -114.638444 293 28142ft 418kts
14-Feb-21 19:29 47.245019 -114.795762 293 30260ft 403kts
14-Feb-21 19:30 47.283610 -114.948493 293 31967ft 395kts
14-Feb-21 19:31 47.321358 -115.098763 293 33464ft 389kts
14-Feb-21 19:32 47.358508 -115.247645 293 34729ft 385kts
14-Feb-21 19:33 47.395157 -115.395442 294 35801ft 383kts
14-Feb-21 19:34 47.431567 -115.543246 293 35873ft 382kts
14-Feb-21 19:35 47.458168 -115.696305 284 35868ft 389kts
14-Feb-21 19:36 47.469446 -115.855620 281 35864ft 390kts
14-Feb-21 19:37 47.479254 -116.015682 281 35876ft 390kts
14-Feb-21 19:38 47.488662 -116.173899 281 35944ft 387kts
14-Feb-21 19:39 47.497856 -116.332151 281 35991ft 385kts
14-Feb-21 19:40 47.506786 -116.489632 281 36001ft 384kts
14-Feb-21 19:41 47.515483 -116.646784 281 36006ft 382kts
14-Feb-21 19:42 47.523875 -116.803157 280 36011ft 381kts
14-Feb-21 19:43 47.532067 -116.959186 280 36011ft 379kts
14-Feb-21 19:44 47.540019 -117.114269 280 36012ft 378kts
14-Feb-21 19:45 47.547775 -117.269713 281 36012ft 376kts
14-Feb-21 19:46 47.555290 -117.424120 281 36010ft 376kts
14-Feb-21 19:47 47.562562 -117.578188 280 36010ft 376kts
14-Feb-21 19:48 47.574858 -117.731329 283 36011ft 373kts
14-Feb-21 19:49 47.589262 -117.883328 283 36010ft 373kts
14-Feb-21 19:50 47.603606 -118.035762 283 36019ft 372kts
14-Feb-21 19:51 47.617673 -118.187411 283 36027ft 372kts
14-Feb-21 19:52 47.631530 -118.338940 283 36028ft 371kts
14-Feb-21 19:53 47.645127 -118.489707 283 36028ft 369kts
14-Feb-21 19:54 47.658523 -118.640671 283 36028ft 368kts
14-Feb-21 19:55 47.671620 -118.791036 282 36028ft 367kts
14-Feb-21 19:56 47.684525 -118.941121 283 36036ft 366kts
14-Feb-21 19:57 47.697188 -119.090377 282 36047ft 365kts
14-Feb-21 19:58 47.709649 -119.239522 282 36047ft 366kts
14-Feb-21 19:59 47.722005 -119.389447 282 36047ft 365kts
14-Feb-21 20:00 47.734200 -119.540803 282 36047ft 366kts
14-Feb-21 20:01 47.746022 -119.690958 281 36048ft 367kts
14-Feb-21 20:02 47.757778 -119.841905 281 36047ft 367kts
14-Feb-21 20:03 47.769368 -119.992764 281 36047ft 368kts
14-Feb-21 20:04 47.780751 -120.143777 281 36052ft 367kts
14-Feb-21 20:05 47.791788 -120.294275 281 35735ft 364kts
14-Feb-21 20:06 47.802433 -120.441256 281 34546ft 352kts
14-Feb-21 20:07 47.812875 -120.586368 280 31542ft 355kts
14-Feb-21 20:08 47.823210 -120.734127 279 28074ft 365kts
14-Feb-21 20:09 47.833632 -120.886826 279 24199ft 379kts
14-Feb-21 20:10 47.844209 -121.043055 278 20634ft 375kts
14-Feb-21 20:11 47.854228 -121.194963 277 17934ft 366kts
14-Feb-21 20:12 47.863896 -121.345225 276 15331ft 359kts
14-Feb-21 20:13 47.873110 -121.490468 275 13309ft 329kts
14-Feb-21 20:14 47.881004 -121.617363 275 12417ft 280kts
14-Feb-21 20:15 47.878538 -121.727312 270 12038ft 273kts
14-Feb-21 20:16 47.885693 -121.836455 274 10881ft 240kts
14-Feb-21 20:17 47.894888 -121.930506 275 9804ft 224kts
14-Feb-21 20:18 47.905864 -122.022902 275 8517ft 224kts
14-Feb-21 20:19 47.917235 -122.113475 275 6883ft 223kts
14-Feb-21 20:20 47.928388 -122.202016 275 6012ft 196kts
14-Feb-21 20:21 47.915663 -122.269715 205 6026ft 183kts
14-Feb-21 20:22 47.866829 -122.291120 190 6012ft 184kts
14-Feb-21 20:23 47.816112 -122.302659 191 6006ft 184kts
14-Feb-21 20:24 47.765660 -122.305136 183 6002ft 174kts
14-Feb-21 20:25 47.716926 -122.305337 182 5517ft 179kts
14-Feb-21 20:26 47.669544 -122.305746 180 4445ft 167kts
14-Feb-21 20:27 47.622753 -122.306227 178 3548ft 168kts
14-Feb-21 20:28 47.575682 -122.306672 177 2649ft 169kts
14-Feb-21 20:29 47.533647 -122.307120 176 1791ft 124kts
14-Feb-21 20:30 47.499251 -122.307402 177 1174ft 123kts
14-Feb-21 20:31 47.465074 -122.307807 175 500ft 122kts
14-Feb-21 20:32 47.446114 -122.307770 149 435ft 9kts
14-Feb-21 20:33 47.445449 -122.306329 181 435ft 10kts
14-Feb-21 20:34 47.440819 -122.306359 181 435ft 18kts
14-Feb-21 20:35 47.440547 -122.301972 55 435ft 14kts
14-Feb-21 20:36 47.441175 -122.300930 45 435ft 0kts

Navigation Log

Ident Type
Flight plan parsing failed, navigation log unavailable